createdAt,value
2018-12-04T00:00:27.761Z,34.80
2018-12-04T00:02:56.593Z,34.10
2018-12-04T00:05:25.421Z,34.60
2018-12-04T00:07:54.297Z,30.80
2018-12-04T00:10:23.130Z,33.07
2018-12-04T00:12:52.029Z,33.27
2018-12-04T00:15:20.928Z,30.57
2018-12-04T00:17:50.556Z,30.07
2018-12-04T00:20:19.400Z,30.70
2018-12-04T00:22:48.271Z,27.93
2018-12-04T00:25:21.237Z,29.57
2018-12-04T00:27:52.000Z,31.07
2018-12-04T00:30:32.720Z,33.90
2018-12-04T00:33:02.733Z,30.97
2018-12-04T00:35:32.970Z,33.80
2018-12-04T00:38:03.578Z,34.50
2018-12-04T00:40:37.630Z,33.73
2018-12-04T00:43:07.458Z,35.30
2018-12-04T00:45:36.288Z,32.13
2018-12-04T00:48:05.761Z,33.07
2018-12-04T00:50:34.658Z,32.63
2018-12-04T00:53:05.160Z,32.63
2018-12-04T00:55:42.162Z,32.63
2018-12-04T00:58:11.045Z,31.87
2018-12-04T01:00:40.601Z,30.73
2018-12-04T01:03:09.438Z,31.53
2018-12-04T01:05:38.820Z,31.00
2018-12-04T01:08:07.653Z,32.53
2018-12-04T01:10:36.589Z,31.77
2018-12-04T01:13:05.409Z,31.97
2018-12-04T01:15:35.241Z,35.27
2018-12-04T01:18:04.094Z,32.93
2018-12-04T01:20:33.874Z,31.67
2018-12-04T01:23:02.705Z,31.03
2018-12-04T01:25:31.569Z,30.03
2018-12-04T01:28:00.409Z,29.10
2018-12-04T01:30:29.214Z,29.73
2018-12-04T01:32:58.322Z,30.10
2018-12-04T01:35:27.102Z,29.37
2018-12-04T01:37:55.925Z,29.27
2018-12-04T01:40:24.770Z,30.00
2018-12-04T01:42:53.574Z,30.93
2018-12-04T01:45:22.369Z,32.10
2018-12-04T01:47:51.211Z,30.97
2018-12-04T01:50:20.050Z,31.77
2018-12-04T01:52:50.353Z,32.93
2018-12-04T01:55:19.144Z,36.10
2018-12-04T01:57:47.932Z,35.23
2018-12-04T02:00:16.782Z,34.57
2018-12-04T02:02:45.579Z,36.37
2018-12-04T02:05:14.511Z,38.73
2018-12-04T02:07:43.368Z,34.10
2018-12-04T02:10:12.161Z,37.90
2018-12-04T02:12:41.037Z,36.80
2018-12-04T02:15:10.239Z,38.17
2018-12-04T02:17:39.019Z,39.27
2018-12-04T02:20:07.869Z,34.67
2018-12-04T02:22:36.713Z,34.63
2018-12-04T02:25:05.918Z,35.30
2018-12-04T02:27:34.739Z,31.43
2018-12-04T02:30:04.197Z,33.07
2018-12-04T02:32:33.026Z,33.83
2018-12-04T02:35:01.809Z,35.30
2018-12-04T02:37:30.635Z,35.33
2018-12-04T02:39:59.444Z,35.53
2018-12-04T02:42:28.995Z,34.43
2018-12-04T02:44:59.189Z,36.77
2018-12-04T02:47:33.209Z,37.47
2018-12-04T02:50:07.374Z,37.13
2018-12-04T02:52:38.673Z,37.87
2018-12-04T02:55:07.805Z,40.73
2018-12-04T02:57:43.093Z,40.40
2018-12-04T03:00:13.110Z,40.13
2018-12-04T03:02:41.902Z,38.70
2018-12-04T03:05:10.811Z,39.27
2018-12-04T03:07:42.214Z,38.77
2018-12-04T03:10:13.518Z,34.73
2018-12-04T03:12:44.034Z,35.80
2018-12-04T03:15:12.924Z,34.13
2018-12-04T03:17:41.729Z,33.70
2018-12-04T03:20:12.757Z,35.60
2018-12-04T03:22:41.549Z,39.23
2018-12-04T03:25:14.384Z,37.23
2018-12-04T03:27:46.112Z,35.67
2018-12-04T03:30:14.991Z,36.57
2018-12-04T03:32:43.806Z,34.97
2018-12-04T03:35:14.538Z,33.97
2018-12-04T03:37:44.401Z,35.80
2018-12-04T03:40:14.117Z,37.17
2018-12-04T03:42:44.683Z,36.93
2018-12-04T03:45:13.650Z,34.60
2018-12-04T03:47:42.970Z,33.67
2018-12-04T03:50:14.091Z,33.90
2018-12-04T03:52:46.485Z,31.83
2018-12-04T03:55:15.349Z,32.33
2018-12-04T03:57:44.189Z,31.97
2018-12-04T04:00:24.190Z,32.07
2018-12-04T04:02:56.471Z,31.77
2018-12-04T04:05:25.365Z,30.50
2018-12-04T04:07:54.153Z,33.57
2018-12-04T04:10:23.017Z,31.53
2018-12-04T04:12:55.542Z,32.53
2018-12-04T04:15:28.013Z,31.63
2018-12-04T04:17:58.849Z,32.90
2018-12-04T04:20:27.654Z,31.67
2018-12-04T04:22:56.456Z,32.70
2018-12-04T04:25:26.478Z,31.03
2018-12-04T04:27:56.175Z,33.10
2018-12-04T04:30:26.361Z,31.27
2018-12-04T04:32:55.825Z,30.13
2018-12-04T04:35:24.634Z,30.47
2018-12-04T04:37:53.473Z,31.33
2018-12-04T04:40:22.854Z,31.97
2018-12-04T04:42:57.794Z,27.87
2018-12-04T04:45:27.275Z,29.93
2018-12-04T04:47:56.998Z,29.50
2018-12-04T04:50:25.947Z,30.47
2018-12-04T04:52:57.232Z,28.50
2018-12-04T04:55:27.109Z,30.53
2018-12-04T04:57:58.312Z,32.63
2018-12-04T05:00:28.861Z,32.60
2018-12-04T05:03:01.254Z,33.57
2018-12-04T05:05:37.689Z,28.67
2018-12-04T05:08:07.112Z,29.00
2018-12-04T05:15:33.500Z,22.40
2018-12-04T05:18:03.663Z,23.93
2018-12-04T05:20:32.505Z,24.50
2018-12-04T05:23:02.660Z,23.53
2018-12-04T05:25:31.533Z,20.57
2018-12-04T05:28:00.341Z,21.77
2018-12-04T05:30:29.158Z,23.97
2018-12-04T05:32:59.251Z,24.60
2018-12-04T05:35:28.107Z,27.47
2018-12-04T05:37:58.261Z,23.67
2018-12-04T05:40:27.043Z,27.37
2018-12-04T05:42:55.970Z,26.77
2018-12-04T05:45:25.973Z,25.33
2018-12-04T05:47:54.800Z,22.17
2018-12-04T05:50:23.583Z,24.50
2018-12-04T05:53:03.404Z,23.47
2018-12-04T05:55:33.477Z,24.17
2018-12-04T05:58:02.933Z,25.77
2018-12-04T06:00:33.138Z,22.77
2018-12-04T06:03:02.025Z,24.00
2018-12-04T06:05:31.517Z,19.57
2018-12-04T06:08:03.248Z,24.27
2018-12-04T06:10:32.704Z,22.73
2018-12-04T06:13:03.102Z,23.60
2018-12-04T06:15:31.974Z,25.30
2018-12-04T06:18:00.993Z,25.40
2018-12-04T06:20:29.962Z,23.70
2018-12-04T06:23:02.134Z,23.33
2018-12-04T06:25:31.885Z,22.60
2018-12-04T06:28:00.838Z,23.17
2018-12-04T06:30:29.715Z,22.77
2018-12-04T06:32:58.518Z,23.93
2018-12-04T06:35:29.682Z,25.80
2018-12-04T06:37:58.509Z,26.60
2018-12-04T06:40:27.318Z,24.90
2018-12-04T06:42:56.121Z,24.53
2018-12-04T06:45:24.954Z,23.30
2018-12-04T06:47:53.753Z,28.57
2018-12-04T06:50:22.612Z,28.93
2018-12-04T06:52:52.677Z,29.07
2018-12-04T06:55:21.476Z,30.10
2018-12-04T06:57:58.690Z,28.23
2018-12-04T07:00:27.524Z,26.73
2018-12-04T07:02:56.334Z,25.47
2018-12-04T07:05:25.211Z,24.83
2018-12-04T07:07:54.010Z,28.97
2018-12-04T07:10:22.857Z,27.30
2018-12-04T07:12:53.220Z,29.17
2018-12-04T07:15:28.314Z,27.30
2018-12-04T07:18:01.482Z,25.90
2018-12-04T07:20:31.343Z,30.23
2018-12-04T07:23:00.169Z,32.10
2018-12-04T07:25:28.993Z,28.07
2018-12-04T07:27:58.333Z,32.43
2018-12-04T07:30:28.388Z,29.23
2018-12-04T07:32:57.209Z,26.73
2018-12-04T07:35:26.051Z,29.87
2018-12-04T07:37:54.849Z,28.87
2018-12-04T07:40:23.654Z,31.10
2018-12-04T07:42:52.516Z,30.83
2018-12-04T07:45:21.309Z,32.27
2018-12-04T07:47:50.157Z,30.87
2018-12-04T07:50:18.971Z,28.50
2018-12-04T07:52:47.813Z,30.20
2018-12-04T07:55:16.601Z,29.83
2018-12-04T07:57:45.406Z,25.60
2018-12-04T08:00:16.465Z,25.43
2018-12-04T08:02:45.279Z,28.60
2018-12-04T08:05:14.090Z,29.97
2018-12-04T08:07:42.966Z,28.17
2018-12-04T08:10:11.769Z,30.80
2018-12-04T08:12:40.565Z,31.70
2018-12-04T08:15:09.441Z,30.00
2018-12-04T08:17:38.254Z,31.10
2018-12-04T08:20:09.706Z,30.13
2018-12-04T08:22:38.639Z,31.13
2018-12-04T08:25:07.790Z,37.58
2018-12-04T08:27:40.309Z,32.67
2018-12-04T08:30:09.579Z,32.13
2018-12-04T08:32:39.583Z,31.63
2018-12-04T08:35:10.173Z,31.77
2018-12-04T08:37:39.593Z,31.87
2018-12-04T08:40:11.229Z,32.30
2018-12-04T08:42:40.066Z,36.03
2018-12-04T08:45:10.385Z,37.43
2018-12-04T08:47:40.840Z,33.93
2018-12-04T08:50:09.671Z,36.40
2018-12-04T08:52:38.625Z,34.00
2018-12-04T08:55:07.630Z,35.63
2018-12-04T08:57:36.435Z,35.63
2018-12-04T09:00:06.326Z,35.90
2018-12-04T09:02:36.678Z,36.27
2018-12-04T09:05:06.116Z,35.70
2018-12-04T09:07:35.929Z,35.37
2018-12-04T09:10:05.681Z,35.97
2018-12-04T09:12:34.511Z,34.63
2018-12-04T09:15:03.470Z,34.50
2018-12-04T09:17:32.330Z,35.37
2018-12-04T09:20:01.163Z,37.30
2018-12-04T09:22:30.696Z,38.13
2018-12-04T09:25:00.237Z,35.57
2018-12-04T09:27:29.566Z,35.17
2018-12-04T09:29:58.477Z,36.17
2018-12-04T09:32:28.706Z,37.87
2018-12-04T09:34:57.665Z,37.37
2018-12-04T09:37:26.453Z,37.80
2018-12-04T09:39:55.327Z,35.40
2018-12-04T09:42:24.249Z,36.37
2018-12-04T09:44:53.090Z,34.07
2018-12-04T09:47:21.918Z,34.50
2018-12-04T09:49:54.405Z,33.97
2018-12-04T09:52:24.698Z,35.93
2018-12-04T09:54:53.509Z,34.70
2018-12-04T09:57:22.425Z,35.20
2018-12-04T09:59:51.239Z,34.03
2018-12-04T10:02:20.078Z,34.50
2018-12-04T10:04:48.937Z,32.83
2018-12-04T10:07:17.769Z,36.00
2018-12-04T10:09:46.586Z,33.70
2018-12-04T10:12:16.702Z,33.67
2018-12-04T10:19:04.869Z,33.57
2018-12-04T10:21:33.670Z,38.02
2018-12-04T10:24:02.493Z,35.37
2018-12-04T10:26:32.573Z,32.93
2018-12-04T10:29:01.418Z,31.10
2018-12-04T10:31:31.462Z,31.67
2018-12-04T10:34:00.321Z,29.20
2018-12-04T10:36:29.126Z,29.23
2018-12-04T10:38:58.751Z,27.67
2018-12-04T10:41:27.695Z,28.60
2018-12-04T10:43:56.650Z,26.77
2018-12-04T10:46:25.505Z,32.27
2018-12-04T10:48:54.333Z,34.07
2018-12-04T10:51:23.153Z,33.47
2018-12-04T10:53:51.999Z,32.17
2018-12-04T10:56:20.803Z,34.63
2018-12-04T10:58:49.923Z,31.67
2018-12-04T11:01:27.641Z,31.47
2018-12-04T11:03:56.440Z,31.13
2018-12-04T11:06:25.370Z,30.73
2018-12-04T11:08:54.252Z,30.60
2018-12-04T11:11:23.037Z,32.27
2018-12-04T11:13:51.818Z,34.30
2018-12-04T11:16:20.650Z,35.17
2018-12-04T11:18:49.430Z,35.33
2018-12-04T11:21:18.221Z,37.37
2018-12-04T11:23:48.245Z,35.50
2018-12-04T11:26:17.049Z,35.13
2018-12-04T11:28:45.829Z,37.70
2018-12-04T11:31:14.731Z,39.27
2018-12-04T11:33:44.011Z,39.30
2018-12-04T11:36:12.822Z,40.47
2018-12-04T11:38:43.037Z,39.87
2018-12-04T11:41:11.862Z,42.03
2018-12-04T11:43:40.714Z,39.87
2018-12-04T11:46:09.515Z,37.93
2018-12-04T11:48:38.301Z,36.27
2018-12-04T11:51:07.158Z,35.37
2018-12-04T11:53:35.972Z,33.60
2018-12-04T11:56:04.772Z,34.70
2018-12-04T11:58:33.758Z,37.77
2018-12-04T12:21:18.375Z,38.43
2018-12-04T12:23:47.219Z,35.70
2018-12-04T12:26:16.579Z,34.77
2018-12-04T12:28:45.469Z,35.00
2018-12-04T12:31:14.289Z,33.23
2018-12-04T12:33:43.145Z,34.77
2018-12-04T12:36:12.030Z,32.47
2018-12-04T12:41:23.946Z,37.60
2018-12-04T12:43:52.916Z,35.30
2018-12-04T12:46:22.616Z,34.93
2018-12-04T12:48:51.518Z,33.17
2018-12-04T12:51:20.360Z,34.33
2018-12-04T12:53:49.241Z,35.63
2018-12-04T12:56:18.140Z,36.03
2018-12-04T12:58:46.998Z,35.90
2018-12-04T13:01:15.856Z,33.20
2018-12-04T13:03:44.694Z,31.57
2018-12-04T13:06:13.665Z,34.73
2018-12-04T13:08:42.516Z,37.80
2018-12-04T13:11:12.683Z,34.73
2018-12-04T13:13:41.571Z,30.10
2018-12-04T13:16:10.466Z,30.70
2018-12-04T13:18:39.297Z,31.27
2018-12-04T13:21:08.114Z,30.40
2018-12-04T13:23:36.984Z,31.77
2018-12-04T13:26:05.870Z,30.90
2018-12-04T13:28:34.723Z,30.63
2018-12-04T13:31:03.624Z,34.33
2018-12-04T13:33:32.593Z,37.60
2018-12-04T13:36:02.434Z,32.77
2018-12-04T13:38:31.272Z,36.33
2018-12-04T13:41:00.076Z,35.30
2018-12-04T13:43:29.413Z,37.70
2018-12-04T13:45:58.228Z,36.20
2018-12-04T13:48:27.030Z,37.63
2018-12-04T13:50:55.914Z,34.93
2018-12-04T13:53:24.745Z,37.03
2018-12-04T13:55:54.917Z,35.63
2018-12-04T13:58:23.768Z,34.27
2018-12-04T14:00:52.637Z,33.90
2018-12-04T14:03:21.509Z,41.77
2018-12-04T14:05:50.329Z,38.90
2018-12-04T14:08:19.217Z,34.90
2018-12-04T14:10:48.128Z,35.50
2018-12-04T14:13:16.977Z,36.43
2018-12-04T14:15:45.780Z,36.40
2018-12-04T14:18:15.198Z,34.43
2018-12-04T14:20:44.051Z,35.87
2018-12-04T14:23:12.901Z,35.50
2018-12-04T14:25:41.941Z,37.47
2018-12-04T14:28:10.772Z,35.40
2018-12-04T14:30:40.646Z,37.73
2018-12-04T14:33:09.467Z,35.23
2018-12-04T14:35:38.321Z,38.30
2018-12-04T14:38:07.252Z,37.13
2018-12-04T14:40:36.206Z,37.57
2018-12-04T14:43:05.178Z,37.17
2018-12-04T14:45:35.320Z,37.40
2018-12-04T14:48:04.209Z,40.53
2018-12-04T14:50:33.229Z,35.23
2018-12-04T14:53:02.265Z,39.47
2018-12-04T14:55:31.209Z,36.40
2018-12-04T14:58:01.469Z,32.43
2018-12-04T15:00:30.360Z,34.90
2018-12-04T15:02:59.170Z,36.23
2018-12-04T15:05:28.130Z,31.93
2018-12-04T15:07:57.018Z,36.03
2018-12-04T15:10:25.911Z,37.67
2018-12-04T15:12:54.882Z,37.13
2018-12-04T15:15:24.795Z,40.07
2018-12-04T15:17:53.855Z,40.70
2018-12-04T15:20:22.824Z,39.23
2018-12-04T15:22:51.673Z,42.10
2018-12-04T15:25:20.538Z,40.40
2018-12-04T15:27:50.892Z,41.47
2018-12-04T15:30:19.766Z,40.40
2018-12-04T15:32:48.701Z,44.33
2018-12-04T15:35:17.571Z,44.23
2018-12-04T15:37:46.455Z,44.50
2018-12-04T15:40:15.407Z,46.33
2018-12-04T15:42:45.546Z,72.43
2018-12-04T15:45:14.512Z,43.50
2018-12-04T15:47:43.371Z,43.60
2018-12-04T15:50:12.263Z,48.53
2018-12-04T15:52:41.136Z,48.33
2018-12-04T15:55:10.076Z,47.90
2018-12-04T15:57:40.265Z,45.97
2018-12-04T16:00:10.977Z,44.90
2018-12-04T16:02:39.870Z,44.93
2018-12-04T16:05:10.108Z,45.87
2018-12-04T16:07:39.292Z,42.90
2018-12-04T16:10:11.259Z,44.67
2018-12-04T16:12:40.115Z,86.57
2018-12-04T16:15:09.421Z,43.67
2018-12-04T16:17:38.234Z,30.20
2018-12-04T16:20:08.383Z,43.93
2018-12-04T16:22:37.284Z,61.30
2018-12-04T16:25:07.833Z,63.20
2018-12-04T16:27:36.769Z,63.97
2018-12-04T16:30:09.789Z,32.10
2018-12-04T16:32:38.671Z,30.73
2018-12-04T16:37:48.826Z,38.03
2018-12-04T16:40:17.680Z,41.63
2018-12-04T16:42:46.533Z,41.47
2018-12-04T16:45:16.608Z,40.13
2018-12-04T16:47:45.449Z,41.77
2018-12-04T16:50:14.293Z,41.57
2018-12-04T16:52:44.460Z,33.27
2018-12-04T16:55:13.357Z,34.80
2018-12-04T16:57:42.198Z,46.48
2018-12-04T17:00:13.308Z,43.47
2018-12-04T17:02:42.152Z,43.90
2018-12-04T17:05:14.048Z,41.30
2018-12-04T17:07:42.904Z,51.10
2018-12-04T17:10:12.033Z,44.37
2018-12-04T17:12:40.969Z,43.27
2018-12-04T17:15:09.979Z,42.20
2018-12-04T17:17:40.060Z,38.00
2018-12-04T17:20:10.386Z,43.90
2018-12-04T17:22:39.225Z,35.80
2018-12-04T17:25:08.108Z,53.42
2018-12-04T17:27:38.298Z,47.30
2018-12-04T17:30:09.630Z,52.53
2018-12-04T17:32:39.975Z,42.90
2018-12-04T17:35:08.829Z,39.30
2018-12-04T17:37:37.667Z,38.97
2018-12-04T17:40:07.461Z,34.83
2018-12-04T17:42:36.286Z,35.13
2018-12-04T17:45:07.349Z,29.17
2018-12-04T17:47:37.575Z,39.17
2018-12-04T17:50:08.121Z,44.73
2018-12-04T17:52:37.011Z,41.60
2018-12-04T17:55:06.370Z,35.47
2018-12-04T17:57:36.677Z,39.97
2018-12-04T18:00:06.302Z,42.97
2018-12-04T18:02:35.101Z,47.63
2018-12-04T18:05:04.138Z,44.30
2018-12-04T18:07:32.978Z,32.20
2018-12-04T18:10:01.851Z,41.73
2018-12-04T18:12:30.728Z,45.03
2018-12-04T18:14:59.616Z,50.30
2018-12-04T18:17:30.070Z,42.37
2018-12-04T18:19:58.914Z,42.77
2018-12-04T18:22:27.789Z,43.90
2018-12-04T18:24:57.914Z,41.57
2018-12-04T18:27:26.738Z,43.87
2018-12-04T18:29:55.939Z,49.57
2018-12-04T18:32:25.318Z,53.60
2018-12-04T18:34:54.145Z,57.10
2018-12-04T18:37:25.294Z,55.27
2018-12-04T18:39:54.286Z,48.50
2018-12-04T18:42:23.152Z,57.53
2018-12-04T18:44:53.621Z,57.03
2018-12-04T18:47:22.515Z,64.12
2018-12-04T18:49:51.430Z,54.23
2018-12-04T18:52:20.359Z,52.07
2018-12-04T18:54:49.217Z,51.07
2018-12-04T18:57:19.537Z,57.43
2018-12-04T18:59:48.444Z,45.13
2018-12-04T19:02:17.351Z,52.83
2018-12-04T19:04:46.375Z,44.87
2018-12-04T19:07:15.274Z,44.90
2018-12-04T19:09:44.127Z,43.23
2018-12-04T19:12:13.101Z,42.97
2018-12-04T19:14:42.009Z,47.23
2018-12-04T19:17:10.849Z,38.13
2018-12-04T19:19:39.692Z,33.87
2018-12-04T19:22:10.179Z,40.60
2018-12-04T19:24:39.013Z,47.43
2018-12-04T19:27:08.778Z,47.90
2018-12-04T19:29:37.853Z,38.40
2018-12-04T19:32:06.711Z,35.80
2018-12-04T19:34:35.694Z,45.87
2018-12-04T19:37:04.568Z,40.43
2018-12-04T19:39:34.902Z,43.17
2018-12-04T19:42:03.953Z,27.23
2018-12-04T19:44:32.827Z,32.57
2018-12-04T19:47:01.697Z,39.00
2018-12-04T19:49:30.497Z,44.93
2018-12-04T19:51:59.410Z,53.97
2018-12-04T19:54:28.223Z,56.57
2018-12-04T19:56:57.055Z,54.77
2018-12-04T19:59:25.950Z,55.93
2018-12-04T20:01:54.761Z,58.27
2018-12-04T20:04:23.575Z,57.63
2018-12-04T20:06:54.049Z,56.77
2018-12-04T20:09:22.882Z,65.67
2018-12-04T20:11:52.209Z,60.70
2018-12-04T20:14:22.562Z,64.20
2018-12-04T20:16:51.390Z,60.57
2018-12-04T20:19:20.483Z,59.37
2018-12-04T20:21:49.343Z,61.63
2018-12-04T20:24:18.221Z,57.17
2018-12-04T20:26:47.021Z,57.30
2018-12-04T20:29:15.864Z,57.17
2018-12-04T20:31:44.733Z,60.10
2018-12-04T20:34:13.562Z,55.50
2018-12-04T20:36:42.397Z,56.73
2018-12-04T20:39:11.283Z,54.60
2018-12-04T20:41:40.131Z,51.30
2018-12-04T20:44:08.934Z,53.47
2018-12-04T20:46:37.815Z,54.07
2018-12-04T20:49:06.666Z,54.77
2018-12-04T20:51:35.494Z,51.30
2018-12-04T20:54:04.597Z,51.93
2018-12-04T20:56:33.415Z,49.73
2018-12-04T20:59:02.506Z,50.17
2018-12-04T21:01:31.542Z,54.50
2018-12-04T21:04:00.370Z,51.57
2018-12-04T21:06:29.230Z,65.00
2018-12-04T21:08:58.178Z,60.60
2018-12-04T21:11:27.024Z,56.23
2018-12-04T21:13:55.951Z,62.17
2018-12-04T21:16:24.831Z,62.87
2018-12-04T21:18:53.686Z,54.77
2018-12-04T21:21:22.523Z,59.80
2018-12-04T21:23:51.381Z,54.60
2018-12-04T21:26:20.324Z,50.07
2018-12-04T21:28:54.243Z,54.63
2018-12-04T21:31:28.101Z,54.87
2018-12-04T21:34:03.301Z,47.30
2018-12-04T21:36:37.331Z,42.77
2018-12-04T21:39:13.905Z,43.80
2018-12-04T21:41:47.825Z,44.73
2018-12-04T21:44:21.773Z,49.00
2018-12-04T21:46:55.633Z,50.53
2018-12-04T21:49:29.857Z,43.17
2018-12-04T21:51:59.977Z,46.87
2018-12-04T21:54:28.817Z,35.27
2018-12-04T21:56:57.613Z,41.20
2018-12-04T21:59:26.558Z,34.33
2018-12-04T22:01:55.388Z,29.87
2018-12-04T22:04:24.229Z,30.50
2018-12-04T22:06:53.089Z,31.93
2018-12-04T22:09:21.912Z,33.87
2018-12-04T22:11:50.770Z,33.23
2018-12-04T22:14:19.654Z,29.77
2018-12-04T22:16:48.483Z,28.50
2018-12-04T22:19:17.346Z,25.43
2018-12-04T22:21:46.677Z,23.90
2018-12-04T22:24:15.509Z,22.27
2018-12-04T22:26:44.321Z,25.20
2018-12-04T22:29:13.195Z,19.57
2018-12-04T22:31:42.015Z,18.03
2018-12-04T22:34:10.851Z,15.40
2018-12-04T22:36:40.307Z,15.53
2018-12-04T22:39:10.358Z,15.70
2018-12-04T22:41:39.215Z,16.43
2018-12-04T22:44:08.097Z,14.87
2018-12-04T22:46:37.167Z,15.50
2018-12-04T22:49:06.394Z,15.73
2018-12-04T22:51:36.703Z,16.03
2018-12-04T22:54:05.717Z,17.07
2018-12-04T22:56:34.565Z,17.60
2018-12-04T22:59:03.408Z,16.93
2018-12-04T23:01:41.382Z,14.83
2018-12-04T23:04:10.392Z,17.20
2018-12-04T23:06:39.239Z,15.70
2018-12-04T23:09:10.969Z,15.03
2018-12-04T23:11:40.541Z,14.23
2018-12-04T23:14:09.368Z,14.43
2018-12-04T23:16:38.350Z,13.93
2018-12-04T23:19:07.189Z,13.40
2018-12-04T23:21:36.033Z,13.70
2018-12-04T23:24:04.941Z,12.43
2018-12-04T23:26:33.773Z,13.53
2018-12-04T23:29:02.620Z,13.03
2018-12-04T23:31:31.936Z,13.00
2018-12-04T23:34:00.767Z,11.03
2018-12-04T23:36:29.584Z,12.70
2018-12-04T23:38:58.481Z,10.97
2018-12-04T23:41:27.304Z,11.47
2018-12-04T23:43:56.150Z,11.73
2018-12-04T23:46:25.033Z,11.03
2018-12-04T23:48:53.889Z,11.50
2018-12-04T23:51:22.752Z,11.50
2018-12-04T23:53:51.619Z,13.50
2018-12-04T23:56:20.477Z,13.10
2018-12-04T23:58:49.424Z,13.83
